sensor_id;sensor_type;location;lat;lon;timestamp;temperature;humidity
55008;DHT22;40902;45.116;21.296;2022-12-11T00:00:18;333.70;2329.60
55008;DHT22;40902;45.116;21.296;2022-12-11T00:02:44;333.70;2329.60
55008;DHT22;40902;45.116;21.296;2022-12-11T00:05:10;333.70;2329.60
55008;DHT22;40902;45.116;21.296;2022-12-11T00:07:36;333.60;2329.60
55008;DHT22;40902;45.116;21.296;2022-12-11T00:10:02;333.60;2329.60
55008;DHT22;40902;45.116;21.296;2022-12-11T00:12:29;333.60;2329.60
55008;DHT22;40902;45.116;21.296;2022-12-11T00:14:55;333.60;2329.60
55008;DHT22;40902;45.116;21.296;2022-12-11T00:17:20;333.60;2329.60
55008;DHT22;40902;45.116;21.296;2022-12-11T00:19:46;333.60;2329.60
55008;DHT22;40902;45.116;21.296;2022-12-11T00:22:12;333.60;2329.60
55008;DHT22;40902;45.116;21.296;2022-12-11T00:24:37;333.70;2329.60
55008;DHT22;40902;45.116;21.296;2022-12-11T00:27:03;333.70;2329.60
55008;DHT22;40902;45.116;21.296;2022-12-11T00:29:29;358.40;2329.60
55008;DHT22;40902;45.116;21.296;2022-12-11T00:31:55;358.60;2329.60
55008;DHT22;40902;45.116;21.296;2022-12-11T00:34:20;358.40;2329.60
55008;DHT22;40902;45.116;21.296;2022-12-11T00:36:46;358.40;2329.60
55008;DHT22;40902;45.116;21.296;2022-12-11T00:39:12;358.40;2329.60
55008;DHT22;40902;45.116;21.296;2022-12-11T00:41:38;333.70;2329.60
55008;DHT22;40902;45.116;21.296;2022-12-11T00:44:04;333.40;2329.60
55008;DHT22;40902;45.116;21.296;2022-12-11T00:46:29;332.90;2329.60
55008;DHT22;40902;45.116;21.296;2022-12-11T00:48:55;307.50;2304.00
55008;DHT22;40902;45.116;21.296;2022-12-11T00:51:21;281.80;2278.40
55008;DHT22;40902;45.116;21.296;2022-12-11T00:53:47;256.70;2252.80
55008;DHT22;40902;45.116;21.296;2022-12-11T00:56:18;256.20;2252.80
55008;DHT22;40902;45.116;21.296;2022-12-11T00:58:48;231.20;2252.80
55008;DHT22;40902;45.116;21.296;2022-12-11T01:01:20;230.90;2252.80
55008;DHT22;40902;45.116;21.296;2022-12-11T01:03:46;230.70;2252.80
55008;DHT22;40902;45.116;21.296;2022-12-11T01:06:14;230.50;2252.80
55008;DHT22;40902;45.116;21.296;2022-12-11T01:08:41;230.50;2252.80
55008;DHT22;40902;45.116;21.296;2022-12-11T01:11:10;205.60;2252.80
55008;DHT22;40902;45.116;21.296;2022-12-11T01:13:38;205.60;2252.80
55008;DHT22;40902;45.116;21.296;2022-12-11T01:16:12;205.50;2252.80
55008;DHT22;40902;45.116;21.296;2022-12-11T01:18:38;205.50;2252.80
55008;DHT22;40902;45.116;21.296;2022-12-11T01:21:12;205.60;2252.80
55008;DHT22;40902;45.116;21.296;2022-12-11T01:23:39;205.50;2252.80
55008;DHT22;40902;45.116;21.296;2022-12-11T01:28:41;230.40;2252.80
55008;DHT22;40902;45.116;21.296;2022-12-11T01:31:08;205.40;2252.80
55008;DHT22;40902;45.116;21.296;2022-12-11T01:33:34;205.20;2252.80
55008;DHT22;40902;45.116;21.296;2022-12-11T01:36:00;205.20;2252.80
55008;DHT22;40902;45.116;21.296;2022-12-11T01:38:26;205.30;2252.80
55008;DHT22;40902;45.116;21.296;2022-12-11T01:40:51;205.20;2252.80
55008;DHT22;40902;45.116;21.296;2022-12-11T01:43:17;205.30;2252.80
55008;DHT22;40902;45.116;21.296;2022-12-11T01:45:45;205.00;2252.80
55008;DHT22;40902;45.116;21.296;2022-12-11T01:48:16;205.00;2252.80
55008;DHT22;40902;45.116;21.296;2022-12-11T01:50:47;204.90;2252.80
55008;DHT22;40902;45.116;21.296;2022-12-11T01:53:18;204.80;2252.80
55008;DHT22;40902;45.116;21.296;2022-12-11T01:55:46;204.90;2252.80
55008;DHT22;40902;45.116;21.296;2022-12-11T01:58:13;204.80;2252.80
55008;DHT22;40902;45.116;21.296;2022-12-11T02:00:39;180.10;2252.80
55008;DHT22;40902;45.116;21.296;2022-12-11T02:03:05;180.10;2252.80
55008;DHT22;40902;45.116;21.296;2022-12-11T02:05:31;180.10;2252.80
55008;DHT22;40902;45.116;21.296;2022-12-11T02:07:58;180.00;2252.80
55008;DHT22;40902;45.116;21.296;2022-12-11T02:13:22;179.90;2252.80
55008;DHT22;40902;45.116;21.296;2022-12-11T02:16:15;180.00;2252.80
55008;DHT22;40902;45.116;21.296;2022-12-11T02:21:44;179.90;2252.80
55008;DHT22;40902;45.116;21.296;2022-12-11T03:01:59;180.00;2252.80
55008;DHT22;40902;45.116;21.296;2022-12-11T03:04:25;179.90;2252.80
55008;DHT22;40902;45.116;21.296;2022-12-11T03:06:54;179.60;2252.80
55008;DHT22;40902;45.116;21.296;2022-12-11T03:09:21;179.50;2252.80
55008;DHT22;40902;45.116;21.296;2022-12-11T03:11:46;179.50;2252.80
55008;DHT22;40902;45.116;21.296;2022-12-11T03:16:46;179.60;2252.80
55008;DHT22;40902;45.116;21.296;2022-12-11T03:19:54;179.40;2252.80
55008;DHT22;40902;45.116;21.296;2022-12-11T03:22:31;179.20;2252.80
55008;DHT22;40902;45.116;21.296;2022-12-11T03:25:02;154.50;2252.80
55008;DHT22;40902;45.116;21.296;2022-12-11T03:30:10;179.20;2252.80
55008;DHT22;40902;45.116;21.296;2022-12-11T03:32:49;154.40;2252.80
55008;DHT22;40902;45.116;21.296;2022-12-11T03:35:35;154.30;2252.80
55008;DHT22;40902;45.116;21.296;2022-12-11T03:38:08;154.10;2252.80
55008;DHT22;40902;45.116;21.296;2022-12-11T03:40:38;154.10;2252.80
55008;DHT22;40902;45.116;21.296;2022-12-11T03:43:05;154.00;2252.80
55008;DHT22;40902;45.116;21.296;2022-12-11T03:45:32;154.00;2252.80
55008;DHT22;40902;45.116;21.296;2022-12-11T03:48:00;153.90;2252.80
55008;DHT22;40902;45.116;21.296;2022-12-11T03:50:30;153.90;2252.80
55008;DHT22;40902;45.116;21.296;2022-12-11T03:52:57;153.90;2252.80
55008;DHT22;40902;45.116;21.296;2022-12-11T03:55:24;153.80;2252.80
55008;DHT22;40902;45.116;21.296;2022-12-11T03:57:50;153.80;2252.80
55008;DHT22;40902;45.116;21.296;2022-12-11T04:00:19;153.80;2252.80
55008;DHT22;40902;45.116;21.296;2022-12-11T04:02:45;153.80;2252.80
55008;DHT22;40902;45.116;21.296;2022-12-11T04:05:31;153.80;2252.80
55008;DHT22;40902;45.116;21.296;2022-12-11T04:07:56;153.70;2252.80
55008;DHT22;40902;45.116;21.296;2022-12-11T04:10:22;153.60;2252.80
55008;DHT22;40902;45.116;21.296;2022-12-11T04:12:48;153.60;2252.80
55008;DHT22;40902;45.116;21.296;2022-12-11T04:15:14;153.60;2252.80
55008;DHT22;40902;45.116;21.296;2022-12-11T04:17:39;128.90;2252.80
55008;DHT22;40902;45.116;21.296;2022-12-11T04:20:24;128.90;2252.80
55008;DHT22;40902;45.116;21.296;2022-12-11T04:23:17;128.90;2252.80
55008;DHT22;40902;45.116;21.296;2022-12-11T04:26:14;128.90;2252.80
55008;DHT22;40902;45.116;21.296;2022-12-11T04:28:40;153.60;2252.80
55008;DHT22;40902;45.116;21.296;2022-12-11T04:31:11;128.90;2252.80
55008;DHT22;40902;45.116;21.296;2022-12-11T04:33:37;153.60;2252.80
55008;DHT22;40902;45.116;21.296;2022-12-11T04:36:03;128.90;2252.80
55008;DHT22;40902;45.116;21.296;2022-12-11T04:38:28;128.90;2252.80
55008;DHT22;40902;45.116;21.296;2022-12-11T04:41:02;128.90;2252.80
55008;DHT22;40902;45.116;21.296;2022-12-11T04:43:28;128.80;2252.80
55008;DHT22;40902;45.116;21.296;2022-12-11T04:46:07;128.80;2252.80
55008;DHT22;40902;45.116;21.296;2022-12-11T04:48:33;128.80;2252.80
55008;DHT22;40902;45.116;21.296;2022-12-11T04:50:59;128.80;2252.80
55008;DHT22;40902;45.116;21.296;2022-12-11T04:53:25;153.60;2252.80
55008;DHT22;40902;45.116;21.296;2022-12-11T04:55:51;128.90;2252.80
55008;DHT22;40902;45.116;21.296;2022-12-11T04:58:16;128.70;2252.80
55008;DHT22;40902;45.116;21.296;2022-12-11T05:00:42;128.60;2252.80
55008;DHT22;40902;45.116;21.296;2022-12-11T05:03:08;128.60;2252.80
55008;DHT22;40902;45.116;21.296;2022-12-11T05:05:35;128.40;2252.80
55008;DHT22;40902;45.116;21.296;2022-12-11T05:08:00;128.40;2252.80
55008;DHT22;40902;45.116;21.296;2022-12-11T05:10:26;128.50;2252.80
55008;DHT22;40902;45.116;21.296;2022-12-11T05:12:52;128.50;2252.80
55008;DHT22;40902;45.116;21.296;2022-12-11T05:15:17;128.50;2252.80
55008;DHT22;40902;45.116;21.296;2022-12-11T05:17:43;128.40;2252.80
55008;DHT22;40902;45.116;21.296;2022-12-11T05:20:09;128.40;2252.80
55008;DHT22;40902;45.116;21.296;2022-12-11T05:22:37;128.40;2252.80
55008;DHT22;40902;45.116;21.296;2022-12-11T05:25:03;128.50;2252.80
55008;DHT22;40902;45.116;21.296;2022-12-11T05:27:29;128.50;2252.80
55008;DHT22;40902;45.116;21.296;2022-12-11T05:29:55;128.40;2252.80
55008;DHT22;40902;45.116;21.296;2022-12-11T05:32:21;128.50;2252.80
55008;DHT22;40902;45.116;21.296;2022-12-11T05:34:46;128.30;2252.80
55008;DHT22;40902;45.116;21.296;2022-12-11T05:37:12;128.40;2252.80
55008;DHT22;40902;45.116;21.296;2022-12-11T05:39:38;128.40;2252.80
55008;DHT22;40902;45.116;21.296;2022-12-11T05:42:04;128.40;2252.80
55008;DHT22;40902;45.116;21.296;2022-12-11T05:44:29;128.40;2252.80
55008;DHT22;40902;45.116;21.296;2022-12-11T05:46:55;128.30;2252.80
55008;DHT22;40902;45.116;21.296;2022-12-11T05:49:21;128.30;2252.80
55008;DHT22;40902;45.116;21.296;2022-12-11T05:51:46;128.40;2252.80
55008;DHT22;40902;45.116;21.296;2022-12-11T05:54:12;128.40;2252.80
55008;DHT22;40902;45.116;21.296;2022-12-11T05:56:38;128.40;2252.80
55008;DHT22;40902;45.116;21.296;2022-12-11T05:59:05;128.40;2252.80
55008;DHT22;40902;45.116;21.296;2022-12-11T06:01:36;128.40;2252.80
55008;DHT22;40902;45.116;21.296;2022-12-11T06:04:04;128.60;2252.80
55008;DHT22;40902;45.116;21.296;2022-12-11T06:06:31;128.40;2252.80
55008;DHT22;40902;45.116;21.296;2022-12-11T06:08:58;128.40;2252.80
55008;DHT22;40902;45.116;21.296;2022-12-11T06:11:26;128.30;2252.80
55008;DHT22;40902;45.116;21.296;2022-12-11T06:13:52;128.20;2252.80
55008;DHT22;40902;45.116;21.296;2022-12-11T06:16:19;128.20;2252.80
55008;DHT22;40902;45.116;21.296;2022-12-11T06:18:45;128.40;2252.80
55008;DHT22;40902;45.116;21.296;2022-12-11T06:21:16;128.30;2252.80
55008;DHT22;40902;45.116;21.296;2022-12-11T06:23:43;128.30;2252.80
55008;DHT22;40902;45.116;21.296;2022-12-11T06:26:09;128.20;2252.80
55008;DHT22;40902;45.116;21.296;2022-12-11T06:28:36;128.30;2252.80
55008;DHT22;40902;45.116;21.296;2022-12-11T06:31:02;128.00;2252.80
55008;DHT22;40902;45.116;21.296;2022-12-11T06:33:28;103.30;2227.20
55008;DHT22;40902;45.116;21.296;2022-12-11T06:35:54;103.30;2227.20
55008;DHT22;40902;45.116;21.296;2022-12-11T06:38:21;128.00;2252.80
55008;DHT22;40902;45.116;21.296;2022-12-11T06:40:54;128.00;2252.80
55008;DHT22;40902;45.116;21.296;2022-12-11T06:43:20;103.20;2227.20
55008;DHT22;40902;45.116;21.296;2022-12-11T06:45:46;103.20;2227.20
55008;DHT22;40902;45.116;21.296;2022-12-11T06:48:12;103.00;2227.20
55008;DHT22;40902;45.116;21.296;2022-12-11T06:50:38;103.00;2227.20
55008;DHT22;40902;45.116;21.296;2022-12-11T06:53:04;103.00;2227.20
55008;DHT22;40902;45.116;21.296;2022-12-11T06:55:29;103.10;2227.20
55008;DHT22;40902;45.116;21.296;2022-12-11T06:57:55;103.10;2227.20
55008;DHT22;40902;45.116;21.296;2022-12-11T07:00:21;103.00;2227.20
55008;DHT22;40902;45.116;21.296;2022-12-11T07:02:46;103.10;2227.20
55008;DHT22;40902;45.116;21.296;2022-12-11T07:05:12;103.10;2227.20
55008;DHT22;40902;45.116;21.296;2022-12-11T07:07:38;103.00;2227.20
55008;DHT22;40902;45.116;21.296;2022-12-11T07:10:04;103.10;2227.20
55008;DHT22;40902;45.116;21.296;2022-12-11T07:12:30;102.90;2227.20
55008;DHT22;40902;45.116;21.296;2022-12-11T07:14:55;102.90;2227.20
55008;DHT22;40902;45.116;21.296;2022-12-11T07:17:21;102.90;2227.20
55008;DHT22;40902;45.116;21.296;2022-12-11T07:19:47;102.80;2227.20
55008;DHT22;40902;45.116;21.296;2022-12-11T07:22:12;102.70;2227.20
55008;DHT22;40902;45.116;21.296;2022-12-11T07:24:38;102.80;2227.20
55008;DHT22;40902;45.116;21.296;2022-12-11T07:27:04;102.90;2227.20
55008;DHT22;40902;45.116;21.296;2022-12-11T07:29:30;102.90;2227.20
55008;DHT22;40902;45.116;21.296;2022-12-11T07:31:55;102.90;2227.20
55008;DHT22;40902;45.116;21.296;2022-12-11T07:34:21;102.80;2227.20
55008;DHT22;40902;45.116;21.296;2022-12-11T07:36:47;103.00;2227.20
55008;DHT22;40902;45.116;21.296;2022-12-11T07:39:13;103.10;2227.20
55008;DHT22;40902;45.116;21.296;2022-12-11T07:41:38;103.20;2227.20
55008;DHT22;40902;45.116;21.296;2022-12-11T07:44:04;103.30;2227.20
55008;DHT22;40902;45.116;21.296;2022-12-11T07:46:31;103.20;2227.20
55008;DHT22;40902;45.116;21.296;2022-12-11T07:48:58;103.00;2227.20
55008;DHT22;40902;45.116;21.296;2022-12-11T07:51:33;103.00;2227.20
55008;DHT22;40902;45.116;21.296;2022-12-11T07:54:20;103.00;2227.20
55008;DHT22;40902;45.116;21.296;2022-12-11T07:56:46;102.80;2227.20
55008;DHT22;40902;45.116;21.296;2022-12-11T07:59:13;102.80;2227.20
55008;DHT22;40902;45.116;21.296;2022-12-11T08:01:39;102.90;2227.20
55008;DHT22;40902;45.116;21.296;2022-12-11T08:04:08;103.00;2227.20
55008;DHT22;40902;45.116;21.296;2022-12-11T08:06:36;103.10;2227.20
55008;DHT22;40902;45.116;21.296;2022-12-11T08:09:04;103.10;2227.20
55008;DHT22;40902;45.116;21.296;2022-12-11T08:11:30;103.10;2227.20
55008;DHT22;40902;45.116;21.296;2022-12-11T08:13:57;103.20;2227.20
55008;DHT22;40902;45.116;21.296;2022-12-11T08:16:24;103.20;2227.20
55008;DHT22;40902;45.116;21.296;2022-12-11T08:18:50;103.20;2227.20
55008;DHT22;40902;45.116;21.296;2022-12-11T08:21:26;103.20;2227.20
55008;DHT22;40902;45.116;21.296;2022-12-11T08:23:53;103.10;2227.20
55008;DHT22;40902;45.116;21.296;2022-12-11T08:26:26;103.10;2227.20
55008;DHT22;40902;45.116;21.296;2022-12-11T08:28:52;102.90;2227.20
55008;DHT22;40902;45.116;21.296;2022-12-11T08:31:19;102.90;2227.20
55008;DHT22;40902;45.116;21.296;2022-12-11T08:33:45;102.90;2227.20
55008;DHT22;40902;45.116;21.296;2022-12-11T08:36:14;102.90;2227.20
55008;DHT22;40902;45.116;21.296;2022-12-11T08:38:41;102.80;2227.20
55008;DHT22;40902;45.116;21.296;2022-12-11T08:41:14;102.80;2227.20
55008;DHT22;40902;45.116;21.296;2022-12-11T08:43:40;103.00;2227.20
55008;DHT22;40902;45.116;21.296;2022-12-11T08:46:06;103.10;2227.20
55008;DHT22;40902;45.116;21.296;2022-12-11T08:48:33;103.10;2227.20
55008;DHT22;40902;45.116;21.296;2022-12-11T08:51:04;103.30;2227.20
55008;DHT22;40902;45.116;21.296;2022-12-11T08:53:31;103.20;2227.20
55008;DHT22;40902;45.116;21.296;2022-12-11T08:56:09;103.30;2227.20
55008;DHT22;40902;45.116;21.296;2022-12-11T08:58:36;103.30;2227.20
55008;DHT22;40902;45.116;21.296;2022-12-11T09:01:09;103.30;2227.20
55008;DHT22;40902;45.116;21.296;2022-12-11T09:03:37;103.30;2227.20
55008;DHT22;40902;45.116;21.296;2022-12-11T09:06:04;103.00;2227.20
55008;DHT22;40902;45.116;21.296;2022-12-11T09:08:30;102.90;2227.20
55008;DHT22;40902;45.116;21.296;2022-12-11T09:11:07;102.90;2227.20
55008;DHT22;40902;45.116;21.296;2022-12-11T09:13:34;102.80;2227.20
55008;DHT22;40902;45.116;21.296;2022-12-11T09:16:03;102.80;2227.20
55008;DHT22;40902;45.116;21.296;2022-12-11T09:18:29;102.90;2227.20
55008;DHT22;40902;45.116;21.296;2022-12-11T09:21:03;103.00;2227.20
55008;DHT22;40902;45.116;21.296;2022-12-11T09:23:29;103.00;2227.20
55008;DHT22;40902;45.116;21.296;2022-12-11T09:25:55;103.00;2227.20
55008;DHT22;40902;45.116;21.296;2022-12-11T09:28:21;103.10;2227.20
55008;DHT22;40902;45.116;21.296;2022-12-11T09:30:47;103.20;2227.20
55008;DHT22;40902;45.116;21.296;2022-12-11T09:33:13;128.00;2252.80
55008;DHT22;40902;45.116;21.296;2022-12-11T09:35:38;103.30;2227.20
55008;DHT22;40902;45.116;21.296;2022-12-11T09:38:04;128.10;2252.80
55008;DHT22;40902;45.116;21.296;2022-12-11T09:40:30;128.00;2252.80
55008;DHT22;40902;45.116;21.296;2022-12-11T09:43:05;103.30;2227.20
55008;DHT22;40902;45.116;21.296;2022-12-11T09:45:33;103.30;2227.20
55008;DHT22;40902;45.116;21.296;2022-12-11T09:47:59;103.30;2227.20
55008;DHT22;40902;45.116;21.296;2022-12-11T09:50:31;103.10;2227.20
55008;DHT22;40902;45.116;21.296;2022-12-11T09:55:50;103.00;2227.20
55008;DHT22;40902;45.116;21.296;2022-12-11T09:58:52;103.00;2227.20
55008;DHT22;40902;45.116;21.296;2022-12-11T10:09:44;103.00;2227.20
55008;DHT22;40902;45.116;21.296;2022-12-11T10:17:48;128.00;2252.80
55008;DHT22;40902;45.116;21.296;2022-12-11T10:22:43;103.30;2227.20
55008;DHT22;40902;45.116;21.296;2022-12-11T10:25:21;103.30;2227.20
55008;DHT22;40902;45.116;21.296;2022-12-11T10:27:49;103.30;2227.20
55008;DHT22;40902;45.116;21.296;2022-12-11T10:30:24;128.00;2252.80
55008;DHT22;40902;45.116;21.296;2022-12-11T10:32:59;128.10;2252.80
55008;DHT22;40902;45.116;21.296;2022-12-11T10:35:42;128.20;2252.80
55008;DHT22;40902;45.116;21.296;2022-12-11T10:38:22;128.30;2252.80
55008;DHT22;40902;45.116;21.296;2022-12-11T10:41:04;128.20;2252.80
55008;DHT22;40902;45.116;21.296;2022-12-11T10:43:41;128.40;2252.80
55008;DHT22;40902;45.116;21.296;2022-12-11T10:46:28;128.50;2252.80
55008;DHT22;40902;45.116;21.296;2022-12-11T10:48:56;128.40;2252.80
55008;DHT22;40902;45.116;21.296;2022-12-11T10:54:06;128.20;2252.80
55008;DHT22;40902;45.116;21.296;2022-12-11T10:56:34;128.20;2252.80
55008;DHT22;40902;45.116;21.296;2022-12-11T10:59:02;128.10;2252.80
55008;DHT22;40902;45.116;21.296;2022-12-11T11:01:30;128.10;2252.80
55008;DHT22;40902;45.116;21.296;2022-12-11T11:06:28;128.20;2252.80
55008;DHT22;40902;45.116;21.296;2022-12-11T11:08:56;128.10;2252.80
55008;DHT22;40902;45.116;21.296;2022-12-11T11:11:31;128.00;2252.80
55008;DHT22;40902;45.116;21.296;2022-12-11T11:14:18;103.30;2227.20
55008;DHT22;40902;45.116;21.296;2022-12-11T11:16:46;128.00;2252.80
55008;DHT22;40902;45.116;21.296;2022-12-11T11:21:56;128.00;2252.80
55008;DHT22;40902;45.116;21.296;2022-12-11T11:24:52;128.10;2252.80
55008;DHT22;40902;45.116;21.296;2022-12-11T11:27:33;128.10;2252.80
55008;DHT22;40902;45.116;21.296;2022-12-11T11:30:03;128.20;2252.80
55008;DHT22;40902;45.116;21.296;2022-12-11T11:32:36;128.10;2252.80
55008;DHT22;40902;45.116;21.296;2022-12-11T11:35:24;128.20;2252.80
55008;DHT22;40902;45.116;21.296;2022-12-11T11:38:12;128.10;2252.80
55008;DHT22;40902;45.116;21.296;2022-12-11T11:41:05;128.10;2252.80
55008;DHT22;40902;45.116;21.296;2022-12-11T11:43:42;128.10;2252.80
55008;DHT22;40902;45.116;21.296;2022-12-11T11:51:31;103.30;2227.20
55008;DHT22;40902;45.116;21.296;2022-12-11T11:54:02;128.00;2252.80
55008;DHT22;40902;45.116;21.296;2022-12-11T11:56:35;128.00;2252.80
55008;DHT22;40902;45.116;21.296;2022-12-11T11:59:04;128.00;2252.80
55008;DHT22;40902;45.116;21.296;2022-12-11T12:01:32;103.30;2227.20
55008;DHT22;40902;45.116;21.296;2022-12-11T12:03:59;128.10;2252.80
55008;DHT22;40902;45.116;21.296;2022-12-11T12:20:26;128.20;2252.80
55008;DHT22;40902;45.116;21.296;2022-12-11T12:26:20;128.00;2252.80
55008;DHT22;40902;45.116;21.296;2022-12-11T12:48:21;128.00;2252.80
55008;DHT22;40902;45.116;21.296;2022-12-11T12:50:49;103.20;2227.20
55008;DHT22;40902;45.116;21.296;2022-12-11T12:53:19;103.20;2227.20
55008;DHT22;40902;45.116;21.296;2022-12-11T12:55:47;128.00;2252.80
55008;DHT22;40902;45.116;21.296;2022-12-11T13:03:36;128.00;2252.80
55008;DHT22;40902;45.116;21.296;2022-12-11T13:06:07;128.00;2252.80
55008;DHT22;40902;45.116;21.296;2022-12-11T13:08:46;128.10;2252.80
55008;DHT22;40902;45.116;21.296;2022-12-11T13:11:16;128.00;2252.80
55008;DHT22;40902;45.116;21.296;2022-12-11T13:13:45;128.10;2252.80
55008;DHT22;40902;45.116;21.296;2022-12-11T13:18:43;128.10;2252.80
55008;DHT22;40902;45.116;21.296;2022-12-11T13:23:54;128.10;2252.80
55008;DHT22;40902;45.116;21.296;2022-12-11T13:26:31;128.00;2252.80
55008;DHT22;40902;45.116;21.296;2022-12-11T13:28:57;128.00;2252.80
55008;DHT22;40902;45.116;21.296;2022-12-11T13:31:38;128.10;2252.80
55008;DHT22;40902;45.116;21.296;2022-12-11T13:34:22;128.10;2252.80
55008;DHT22;40902;45.116;21.296;2022-12-11T13:36:53;128.10;2252.80
55008;DHT22;40902;45.116;21.296;2022-12-11T13:39:33;128.10;2252.80
55008;DHT22;40902;45.116;21.296;2022-12-11T13:42:17;128.10;2252.80
55008;DHT22;40902;45.116;21.296;2022-12-11T13:44:46;128.10;2252.80
55008;DHT22;40902;45.116;21.296;2022-12-11T13:47:14;128.10;2252.80
55008;DHT22;40902;45.116;21.296;2022-12-11T13:49:43;128.20;2252.80
55008;DHT22;40902;45.116;21.296;2022-12-11T13:52:21;128.20;2252.80
55008;DHT22;40902;45.116;21.296;2022-12-11T13:54:52;128.30;2252.80
55008;DHT22;40902;45.116;21.296;2022-12-11T13:57:23;128.30;2252.80
55008;DHT22;40902;45.116;21.296;2022-12-11T13:59:55;128.30;2252.80
55008;DHT22;40902;45.116;21.296;2022-12-11T14:02:38;128.40;2252.80
55008;DHT22;40902;45.116;21.296;2022-12-11T14:05:07;128.30;2252.80
55008;DHT22;40902;45.116;21.296;2022-12-11T14:07:42;128.40;2252.80
55008;DHT22;40902;45.116;21.296;2022-12-11T14:12:47;128.40;2252.80
55008;DHT22;40902;45.116;21.296;2022-12-11T14:15:15;128.40;2252.80
55008;DHT22;40902;45.116;21.296;2022-12-11T14:17:42;128.30;2252.80
55008;DHT22;40902;45.116;21.296;2022-12-11T14:20:21;128.20;2252.80
55008;DHT22;40902;45.116;21.296;2022-12-11T14:22:47;128.20;2252.80
55008;DHT22;40902;45.116;21.296;2022-12-11T14:25:21;128.10;2252.80
55008;DHT22;40902;45.116;21.296;2022-12-11T14:27:53;128.00;2252.80
55008;DHT22;40902;45.116;21.296;2022-12-11T14:30:21;128.00;2252.80
55008;DHT22;40902;45.116;21.296;2022-12-11T14:32:47;128.10;2252.80
55008;DHT22;40902;45.116;21.296;2022-12-11T14:35:35;128.20;2252.80
55008;DHT22;40902;45.116;21.296;2022-12-11T14:38:09;128.30;2252.80
55008;DHT22;40902;45.116;21.296;2022-12-11T14:40:37;128.30;2252.80
55008;DHT22;40902;45.116;21.296;2022-12-11T14:43:13;128.40;2252.80
55008;DHT22;40902;45.116;21.296;2022-12-11T14:45:43;128.20;2252.80
55008;DHT22;40902;45.116;21.296;2022-12-11T14:48:16;128.20;2252.80
55008;DHT22;40902;45.116;21.296;2022-12-11T14:50:47;128.00;2252.80
55008;DHT22;40902;45.116;21.296;2022-12-11T14:53:36;128.10;2252.80
55008;DHT22;40902;45.116;21.296;2022-12-11T14:56:07;128.10;2252.80
55008;DHT22;40902;45.116;21.296;2022-12-11T14:58:39;128.00;2252.80
55008;DHT22;40902;45.116;21.296;2022-12-11T15:03:46;128.20;2252.80
55008;DHT22;40902;45.116;21.296;2022-12-11T15:06:31;128.20;2252.80
55008;DHT22;40902;45.116;21.296;2022-12-11T15:11:43;128.10;2252.80
55008;DHT22;40902;45.116;21.296;2022-12-11T15:14:11;128.10;2252.80
55008;DHT22;40902;45.116;21.296;2022-12-11T15:16:40;128.20;2252.80
55008;DHT22;40902;45.116;21.296;2022-12-11T15:19:34;128.30;2252.80
55008;DHT22;40902;45.116;21.296;2022-12-11T15:22:03;128.30;2252.80
55008;DHT22;40902;45.116;21.296;2022-12-11T15:24:41;128.40;2252.80
55008;DHT22;40902;45.116;21.296;2022-12-11T15:27:36;128.40;2252.80
55008;DHT22;40902;45.116;21.296;2022-12-11T15:30:23;128.30;2252.80
55008;DHT22;40902;45.116;21.296;2022-12-11T15:35:30;128.30;2252.80
55008;DHT22;40902;45.116;21.296;2022-12-11T15:37:57;128.30;2252.80
55008;DHT22;40902;45.116;21.296;2022-12-11T15:40:23;128.30;2252.80
55008;DHT22;40902;45.116;21.296;2022-12-11T15:42:49;128.20;2252.80
55008;DHT22;40902;45.116;21.296;2022-12-11T15:45:21;128.40;2252.80
55008;DHT22;40902;45.116;21.296;2022-12-11T15:47:49;128.40;2252.80
55008;DHT22;40902;45.116;21.296;2022-12-11T15:50:23;128.30;2252.80
55008;DHT22;40902;45.116;21.296;2022-12-11T15:52:52;128.30;2252.80
55008;DHT22;40902;45.116;21.296;2022-12-11T15:55:19;128.40;2252.80
55008;DHT22;40902;45.116;21.296;2022-12-11T15:58:00;128.30;2252.80
55008;DHT22;40902;45.116;21.296;2022-12-11T16:00:26;128.30;2252.80
55008;DHT22;40902;45.116;21.296;2022-12-11T16:02:53;128.50;2252.80
55008;DHT22;40902;45.116;21.296;2022-12-11T16:05:19;128.60;2252.80
55008;DHT22;40902;45.116;21.296;2022-12-11T16:07:46;128.80;2252.80
55008;DHT22;40902;45.116;21.296;2022-12-11T16:10:15;128.80;2252.80
55008;DHT22;40902;45.116;21.296;2022-12-11T16:12:43;128.80;2252.80
55008;DHT22;40902;45.116;21.296;2022-12-11T16:15:10;128.90;2252.80
55008;DHT22;40902;45.116;21.296;2022-12-11T16:17:37;128.90;2252.80
55008;DHT22;40902;45.116;21.296;2022-12-11T16:20:04;128.90;2252.80
55008;DHT22;40902;45.116;21.296;2022-12-11T16:22:30;128.90;2252.80
55008;DHT22;40902;45.116;21.296;2022-12-11T16:24:56;128.90;2252.80
55008;DHT22;40902;45.116;21.296;2022-12-11T16:27:22;128.80;2252.80
55008;DHT22;40902;45.116;21.296;2022-12-11T16:29:47;128.70;2252.80
55008;DHT22;40902;45.116;21.296;2022-12-11T16:32:13;128.40;2252.80
55008;DHT22;40902;45.116;21.296;2022-12-11T16:34:39;128.40;2252.80
55008;DHT22;40902;45.116;21.296;2022-12-11T16:37:06;128.30;2252.80
55008;DHT22;40902;45.116;21.296;2022-12-11T16:39:33;128.20;2252.80
55008;DHT22;40902;45.116;21.296;2022-12-11T16:41:59;128.20;2252.80
55008;DHT22;40902;45.116;21.296;2022-12-11T16:44:25;128.30;2252.80
55008;DHT22;40902;45.116;21.296;2022-12-11T16:46:52;128.30;2252.80
55008;DHT22;40902;45.116;21.296;2022-12-11T16:49:20;128.20;2252.80
55008;DHT22;40902;45.116;21.296;2022-12-11T16:51:46;128.20;2252.80
55008;DHT22;40902;45.116;21.296;2022-12-11T16:54:14;128.10;2252.80
55008;DHT22;40902;45.116;21.296;2022-12-11T16:56:40;128.00;2252.80
55008;DHT22;40902;45.116;21.296;2022-12-11T16:59:06;128.00;2252.80
55008;DHT22;40902;45.116;21.296;2022-12-11T17:01:32;128.00;2252.80
55008;DHT22;40902;45.116;21.296;2022-12-11T17:03:59;128.00;2252.80
55008;DHT22;40902;45.116;21.296;2022-12-11T17:06:25;128.00;2252.80
55008;DHT22;40902;45.116;21.296;2022-12-11T17:08:51;128.10;2252.80
55008;DHT22;40902;45.116;21.296;2022-12-11T17:11:19;128.10;2252.80